This is the latest recevied weather packets stored in our database for station/object N2KI-13. If no packets are shown the sender has not sent any weather packets the latest 10 day(s).
| Time | Temp. | Humidity | Pressure | Rain* | Wind** | Luminosity | Snow |
|---|---|---|---|---|---|---|---|
| 1777705804 | 8.89° C | 89% | 1011.6 hPa | 0 mm | - | - | - |
| 1777704604 | 8.89° C | 89% | 1011.8 hPa | 0.51 mm | - | - | - |
| 1777702504 | 8.89° C | 88% | 1011.9 hPa | 0.51 mm | - | - | - |
| 1777701603 | 8.89° C | 87% | 1011.9 hPa | 0.51 mm | - | - | - |
| 1777697704 | 9.44° C | 85% | 1011.7 hPa | 0 mm | - | - | - |
| 1777697404 | 9.44° C | 84% | 1011.5 hPa | 0 mm | - | - | - |
| 1777696505 | 9.44° C | 84% | 1011 hPa | 0 mm | - | - | - |
| 1777695904 | 9.44° C | 83% | 1011.2 hPa | 0 mm | - | - | - |
| 1777695004 | 9.44° C | 83% | 1011.5 hPa | 0 mm | - | - | - |
| 1777694704 | 9.44° C | 83% | 1011.4 hPa | 0 mm | - | - | - |
| 1777694404 | 9.44° C | 83% | 1011.3 hPa | 0 mm | - | - | - |
| 1777691404 | 9.44° C | 83% | 1011.4 hPa | 0 mm | - | - | - |
| 1777691104 | 9.44° C | 83% | 1011.4 hPa | 0 mm | - | - | - |
| 1777683605 | 10.56° C | 80% | 1011.1 hPa | 0 mm | - | - | - |
| 1777683304 | 11.11° C | 80% | 1011.1 hPa | 0 mm | - | - | - |
| 1777679404 | 12.78° C | 77% | 1010.7 hPa | 0 mm | - | - | - |
| 1777676704 | 15° C | 52% | 1010.2 hPa | 0 mm | - | - | - |
| 1777674904 | 16.11° C | 46% | 1009.7 hPa | 0 mm | - | - | - |
| 1777674005 | 16.67° C | 40% | 1009.5 hPa | 0 mm | - | - | - |
| 1777673704 | 16.67° C | 42% | 1009.5 hPa | 0 mm | - | - | - |
| 1777672805 | 16.67° C | 40% | 1009.6 hPa | 0 mm | - | - | - |
| 1777672503 | 16.67° C | 40% | 1009.5 hPa | 0 mm | - | - | - |
| 1777671904 | 16.67° C | 42% | 1009.5 hPa | 0 mm | - | - | - |
| 1777671604 | 16.67° C | 40% | 1009.4 hPa | 0 mm | - | - | - |
| 1777671304 | 16.67° C | 39% | 1009.4 hPa | 0 mm | - | - | - |
* Rain latest hour (hover to see other rain measurements)
** Current wind speed in m/s (hover to see current wind gust speed)